Time;durP1;ratioP1;P1;durP2;ratioP2;P2;SDS_P1;SDS_P2;PMS_P1;PMS_P2;Temp;Humidity;BMP_temperature;BMP_pressure;BME280_temperature;BME280_humidity;BME280_pressure;Samples;Min_cycle;Max_cycle;Signal;HPM_P1;HPM_P2
2023/09/07 00:01:19;;;;;;;;;9.33;7.00;;;;;25.53;45.88;101338.47;5079855;27;61102;-52
2023/09/07 00:03:44;;;;;;;;;6.67;6.33;;;;;25.52;46.16;101338.63;5079148;27;45793;-52
2023/09/07 00:06:10;;;;;;;;;10.67;9.00;;;;;25.49;46.24;101333.50;5087343;27;45368;-47
2023/09/07 00:08:35;;;;;;;;;9.33;9.33;;;;;25.48;46.96;101329.94;5094330;27;45687;-53
2023/09/07 00:11:05;;;;;;;;;9.00;8.75;;;;;25.47;46.29;101333.66;5081079;27;46291;-48
2023/09/07 00:13:31;;;;;;;;;10.00;10.00;;;;;25.44;46.32;101331.28;5082821;27;45936;-48
2023/09/07 00:15:59;;;;;;;;;8.67;7.00;;;;;25.43;46.66;101324.13;5089555;27;45507;-51
2023/09/07 00:18:25;;;;;;;;;8.67;8.00;;;;;25.39;46.79;101323.56;5092813;27;45594;-52
2023/09/07 00:20:50;;;;;;;;;8.75;8.75;;;;;25.36;46.68;101329.34;5083371;27;74952;-49
2023/09/07 00:23:16;;;;;;;;;6.50;6.50;;;;;25.33;46.17;101321.50;5097196;27;63071;-49
2023/09/07 00:25:41;;;;;;;;;8.50;8.50;;;;;25.34;47.01;101331.34;5085980;27;45790;-49
2023/09/07 00:28:06;;;;;;;;;10.00;8.00;;;;;25.36;46.11;101320.34;5079048;27;68862;-47
2023/09/07 00:30:32;;;;;;;;;8.00;7.00;;;;;25.35;45.94;101326.81;5094099;27;51075;-47
2023/09/07 00:32:57;;;;;;;;;10.75;7.75;;;;;25.32;46.11;101322.50;5092965;27;45392;-48
2023/09/07 00:35:22;;;;;;;;;8.67;7.00;;;;;25.31;45.98;101317.22;5094441;27;62227;-48
2023/09/07 00:37:48;;;;;;;;;7.33;6.33;;;;;25.27;45.99;101322.13;5090010;27;68731;-49
2023/09/07 00:40:13;;;;;;;;;6.75;5.75;;;;;25.23;45.87;101321.59;5084322;27;45390;-49
2023/09/07 00:42:38;;;;;;;;;7.33;7.00;;;;;25.20;45.96;101327.38;5096460;27;45336;-47
2023/09/07 00:45:04;;;;;;;;;8.00;8.00;;;;;25.18;46.37;101323.09;5095697;27;48854;-47
2023/09/07 00:47:30;;;;;;;;;8.67;8.67;;;;;25.17;46.20;101322.22;5094109;27;45398;-48
2023/09/07 00:49:56;;;;;;;;;12.00;8.33;;;;;25.17;46.46;101321.38;5079633;27;73304;-48
2023/09/07 00:52:21;;;;;;;;;8.00;8.00;;;;;25.16;45.94;101322.38;5080915;27;45375;-50
2023/09/07 00:54:46;;;;;;;;;8.50;8.00;;;;;25.15;46.90;101323.41;5091388;27;59738;-48
2023/09/07 00:57:12;;;;;;;;;6.00;5.33;;;;;25.12;46.72;101321.84;5088495;27;65532;-49
2023/09/07 00:59:37;;;;;;;;;9.67;6.33;;;;;25.07;46.74;101318.75;5091863;27;46011;-50
2023/09/07 01:02:05;;;;;;;;;7.00;7.00;;;;;25.00;46.30;101320.41;5090735;27;63900;-48
2023/09/07 01:04:31;;;;;;;;;8.00;7.00;;;;;24.93;46.84;101321.03;5090698;27;45358;-47
2023/09/07 01:06:59;;;;;;;;;6.00;6.00;;;;;24.90;46.65;101307.78;5089638;27;45521;-50
2023/09/07 01:09:26;;;;;;;;;8.67;8.67;;;;;24.87;46.38;101324.38;5073362;27;46162;-48
2023/09/07 01:11:52;;;;;;;;;10.00;7.33;;;;;24.84;46.72;101311.13;5078957;27;45422;-48
2023/09/07 01:14:18;;;;;;;;;6.33;6.33;;;;;24.83;46.25;101309.41;5081867;27;45276;-48
2023/09/07 01:16:43;;;;;;;;;3.50;3.50;;;;;24.83;46.88;101308.56;5081950;27;45509;-51
2023/09/07 01:19:09;;;;;;;;;5.00;4.00;;;;;24.84;46.41;101304.84;5092996;27;54423;-47
2023/09/07 01:21:38;;;;;;;;;8.00;8.00;;;;;24.82;46.20;101307.69;5095915;27;45559;-47
2023/09/07 01:24:08;;;;;;;;;7.33;7.33;;;;;24.81;46.95;101308.72;5079490;27;45379;-48
2023/09/07 01:26:35;;;;;;;;;8.00;5.67;;;;;24.79;46.72;101307.19;5098333;27;45415;-49
2023/09/07 01:29:01;;;;;;;;;7.33;7.33;;;;;24.73;46.45;101308.63;5078808;27;45573;-48
2023/09/07 01:31:26;;;;;;;;;7.67;7.67;;;;;24.70;46.59;101304.38;5061551;28;45430;-48
2023/09/07 01:33:51;;;;;;;;;7.67;7.33;;;;;24.67;46.76;101314.72;5070400;28;69396;-48
2023/09/07 01:36:17;;;;;;;;;8.67;8.67;;;;;24.61;46.99;101308.88;5057842;28;65367;-47
2023/09/07 01:38:42;;;;;;;;;10.00;7.67;;;;;24.60;47.19;101303.56;5058169;28;75724;-48
2023/09/07 01:41:07;;;;;;;;;6.33;6.33;;;;;24.58;46.85;101311.88;5057616;28;72189;-48
2023/09/07 01:43:33;;;;;;;;;8.33;7.33;;;;;24.57;47.23;101304.72;5068863;28;53739;-48
2023/09/07 01:45:58;;;;;;;;;8.50;7.00;;;;;24.57;47.12;101302.00;5058625;28;67775;-47
2023/09/07 01:48:23;;;;;;;;;6.00;6.00;;;;;24.55;47.12;101304.06;5059643;28;72173;-48
2023/09/07 01:50:53;;;;;;;;;6.67;6.67;;;;;24.52;47.00;101304.38;5063278;28;70901;-51
2023/09/07 01:53:18;;;;;;;;;9.67;8.00;;;;;24.48;47.71;101305.69;5068439;27;45583;-50
2023/09/07 01:55:44;;;;;;;;;10.67;9.00;;;;;24.43;47.18;101299.84;5067742;28;68424;-51
2023/09/07 01:58:09;;;;;;;;;8.00;5.00;;;;;24.38;47.99;101313.94;5065137;27;74012;-48
2023/09/07 02:00:40;;;;;;;;;8.00;8.00;;;;;24.35;47.72;101313.38;5072963;27;45443;-47
2023/09/07 02:03:06;;;;;;;;;8.67;8.67;;;;;24.31;47.42;101309.25;5072741;28;45307;-47
2023/09/07 02:05:35;;;;;;;;;8.67;7.67;;;;;24.26;47.48;101307.88;5069110;28;67452;-47
2023/09/07 02:08:00;;;;;;;;;6.67;6.67;;;;;24.25;47.61;101310.75;5075001;28;47999;-49
2023/09/07 02:10:25;;;;;;;;;7.67;7.67;;;;;24.24;48.12;101307.16;5062724;28;46351;-47
2023/09/07 02:12:51;;;;;;;;;7.67;7.67;;;;;24.20;48.14;101304.91;5076221;27;45315;-48
2023/09/07 02:15:17;;;;;;;;;8.00;6.67;;;;;24.18;48.30;101306.91;5071742;27;45463;-48
2023/09/07 02:17:44;;;;;;;;;7.67;7.33;;;;;24.15;48.10;101299.09;5069037;27;45517;-50
2023/09/07 02:20:13;;;;;;;;;9.50;8.25;;;;;24.15;48.18;101297.22;5063640;27;45715;-50
2023/09/07 02:22:39;;;;;;;;;8.00;8.00;;;;;24.16;47.83;101298.06;5072930;27;45531;-47
2023/09/07 02:25:05;;;;;;;;;8.67;8.33;;;;;24.14;47.67;101298.22;5061668;28;45396;-46
2023/09/07 02:27:31;;;;;;;;;6.67;6.00;;;;;24.12;47.77;101300.25;5061256;28;45475;-49
2023/09/07 02:29:57;;;;;;;;;6.50;6.50;;;;;24.10;47.61;101296.81;5086859;27;45360;-47
2023/09/07 02:32:22;;;;;;;;;9.67;7.67;;;;;24.07;47.85;101302.56;5090215;27;63987;-52
2023/09/07 02:34:48;;;;;;;;;9.00;8.00;;;;;24.06;47.42;101300.84;5092856;27;67470;-50
2023/09/07 02:37:14;;;;;;;;;7.67;7.67;;;;;24.06;47.60;101300.84;5086256;27;45988;-51
2023/09/07 02:39:40;;;;;;;;;6.67;6.67;;;;;24.05;48.01;101299.13;5097492;27;45403;-50
2023/09/07 02:42:06;;;;;;;;;9.00;8.00;;;;;24.02;47.82;101300.31;5099182;27;45331;-48
2023/09/07 02:44:31;;;;;;;;;8.00;7.33;;;;;23.97;47.87;101296.34;5081306;27;45515;-47
2023/09/07 02:46:56;;;;;;;;;10.33;8.00;;;;;23.93;47.68;101299.34;5084063;27;76246;-51
2023/09/07 02:49:22;;;;;;;;;9.00;8.00;;;;;23.93;47.83;101290.34;5084351;27;70824;-49
2023/09/07 02:51:47;;;;;;;;;9.00;9.00;;;;;23.93;48.05;101298.50;5081438;27;45434;-47
2023/09/07 02:54:12;;;;;;;;;10.00;7.25;;;;;23.93;47.78;101296.63;5087844;27;45394;-50
2023/09/07 02:56:38;;;;;;;;;8.00;8.00;;;;;23.90;47.88;101298.81;5088390;27;71229;-47
2023/09/07 02:59:03;;;;;;;;;7.33;7.00;;;;;23.89;47.79;101295.19;5098752;27;45456;-47
2023/09/07 03:01:28;;;;;;;;;9.00;9.00;;;;;23.87;48.03;101293.63;5087881;27;63024;-49
2023/09/07 03:03:54;;;;;;;;;9.67;8.33;;;;;23.83;48.32;101292.25;5094772;27;45393;-46
2023/09/07 03:06:20;;;;;;;;;8.33;7.00;;;;;23.79;47.91;101291.69;5090343;27;67323;-49
2023/09/07 03:08:45;;;;;;;;;14.33;8.00;;;;;23.76;47.72;101290.13;5086888;27;45462;-46
2023/09/07 03:11:11;;;;;;;;;10.00;10.00;;;;;23.73;48.88;101290.44;5095631;27;45509;-50
2023/09/07 03:13:37;;;;;;;;;8.00;8.00;;;;;23.71;48.10;101292.44;5080561;27;45590;-48
2023/09/07 03:16:03;;;;;;;;;10.67;9.33;;;;;23.68;48.37;101286.47;5080854;27;46068;-51
2023/09/07 03:18:29;;;;;;;;;11.00;10.00;;;;;23.65;48.83;101278.63;5084281;27;45472;-50
2023/09/07 03:20:55;;;;;;;;;10.33;10.33;;;;;23.67;48.72;101285.59;5086242;27;45289;-51
2023/09/07 03:23:21;;;;;;;;;13.00;9.67;;;;;23.66;49.20;101288.47;5098718;27;45411;-49
2023/09/07 03:25:46;;;;;;;;;9.33;9.33;;;;;23.61;48.60;101287.06;5070258;28;45651;-47
2023/09/07 03:28:11;;;;;;;;;12.00;9.00;;;;;23.58;48.81;101287.38;5090797;27;73142;-50
2023/09/07 03:30:38;;;;;;;;;10.00;8.00;;;;;23.56;48.89;101289.38;5080590;27;65674;-47
2023/09/07 03:33:04;;;;;;;;;9.33;9.33;;;;;23.53;48.95;101289.69;5088290;27;45327;-47
2023/09/07 03:35:29;;;;;;;;;11.00;10.00;;;;;23.49;49.00;101282.81;5094235;27;45393;-48
2023/09/07 03:37:55;;;;;;;;;7.33;7.33;;;;;23.42;49.51;101279.88;5096880;27;69798;-52
2023/09/07 03:40:20;;;;;;;;;11.33;10.33;;;;;23.39;49.53;101287.47;5092026;27;45639;-48
2023/09/07 03:42:46;;;;;;;;;10.33;9.33;;;;;23.36;49.46;101283.19;5081529;27;45310;-48
2023/09/07 03:45:11;;;;;;;;;10.67;10.67;;;;;23.34;50.09;101289.78;5086166;27;46189;-48
2023/09/07 03:47:37;;;;;;;;;11.67;10.33;;;;;23.28;50.16;101286.66;5080036;27;45468;-47
2023/09/07 03:50:03;;;;;;;;;12.00;9.00;;;;;23.26;49.77;101290.50;5069752;27;45504;-47
2023/09/07 03:52:28;;;;;;;;;8.00;8.00;;;;;23.22;50.56;101289.94;5082894;27;45923;-52
2023/09/07 03:54:54;;;;;;;;;8.00;6.67;;;;;23.18;50.54;101296.69;5081044;27;46183;-50
2023/09/07 03:57:20;;;;;;;;;14.00;10.67;;;;;23.15;50.47;101298.81;5084656;27;45333;-48
2023/09/07 03:59:46;;;;;;;;;8.33;6.67;;;;;23.12;50.69;101294.50;5083653;27;45331;-50
2023/09/07 04:02:12;;;;;;;;;10.00;10.00;;;;;23.10;50.51;101293.78;5090608;27;45267;-51
2023/09/07 04:04:37;;;;;;;;;11.00;11.00;;;;;23.12;50.31;101289.94;5071072;27;47001;-48
2023/09/07 04:07:03;;;;;;;;;13.00;11.33;;;;;23.13;50.84;101288.94;5089181;27;45493;-48
2023/09/07 04:09:28;;;;;;;;;11.67;10.00;;;;;23.11;51.13;101287.38;5089218;27;45404;-48
2023/09/07 04:11:54;;;;;;;;;13.33;11.67;;;;;23.08;52.11;101293.94;5091691;27;66809;-49
2023/09/07 04:14:19;;;;;;;;;10.67;8.67;;;;;23.03;51.39;101295.41;5082459;27;74190;-47
2023/09/07 04:16:44;;;;;;;;;12.00;11.33;;;;;23.01;52.18;101300.97;5079576;27;45449;-48
2023/09/07 04:19:10;;;;;;;;;12.00;12.00;;;;;22.98;52.34;101286.84;5084121;27;45574;-48
2023/09/07 04:21:36;;;;;;;;;14.67;13.00;;;;;22.94;52.83;101289.88;5096686;27;45383;-48
2023/09/07 04:24:01;;;;;;;;;11.33;10.33;;;;;22.94;52.49;101291.69;5086267;27;46098;-47
2023/09/07 04:26:27;;;;;;;;;12.00;12.00;;;;;22.91;53.29;101289.28;5079228;27;45372;-49
2023/09/07 04:28:52;;;;;;;;;13.00;12.00;;;;;22.87;53.64;101290.59;5081241;27;66620;-47
2023/09/07 04:31:18;;;;;;;;;9.33;9.33;;;;;22.83;53.64;101290.00;5074069;27;46310;-48
2023/09/07 04:33:43;;;;;;;;;15.67;11.67;;;;;22.78;53.49;101292.31;5068862;28;46219;-48
2023/09/07 04:36:13;;;;;;;;;11.33;11.33;;;;;22.77;53.65;101290.59;5071177;28;47586;-50
2023/09/07 04:38:39;;;;;;;;;12.33;10.67;;;;;22.73;54.49;101292.72;5067232;28;45299;-47
2023/09/07 04:41:10;;;;;;;;;13.67;13.00;;;;;22.70;54.30;101286.75;5077722;28;45707;-50
2023/09/07 04:43:37;;;;;;;;;10.00;10.00;;;;;22.68;55.12;101288.75;5075973;28;45427;-52
2023/09/07 04:46:02;;;;;;;;;13.33;12.00;;;;;22.61;55.46;101286.59;5068572;28;45944;-51
2023/09/07 04:48:28;;;;;;;;;12.67;12.67;;;;;22.54;54.79;101290.91;5061935;28;45382;-51
2023/09/07 04:51:00;;;;;;;;;16.67;13.33;;;;;22.51;55.17;101293.03;5061579;28;45449;-48
2023/09/07 04:53:28;;;;;;;;;14.33;11.33;;;;;22.48;54.60;101288.75;5058619;28;46170;-47
2023/09/07 04:55:54;;;;;;;;;10.00;10.00;;;;;22.46;54.70;101297.03;5059844;28;45465;-48
2023/09/07 04:58:19;;;;;;;;;15.33;12.00;;;;;22.50;54.98;101300.28;5068770;28;67139;-49
2023/09/07 05:00:44;;;;;;;;;13.33;12.67;;;;;22.52;54.00;101294.75;5061238;28;63630;-49
2023/09/07 05:03:10;;;;;;;;;9.33;9.33;;;;;22.57;54.31;101311.44;5063134;28;45470;-48
2023/09/07 05:05:35;;;;;;;;;12.67;11.00;;;;;22.58;54.45;101311.31;5071575;28;70191;-50
2023/09/07 05:08:00;;;;;;;;;11.33;11.00;;;;;22.61;53.93;101312.88;5077951;27;45392;-47
2023/09/07 05:10:26;;;;;;;;;12.33;10.67;;;;;22.63;53.91;101310.84;5069233;27;46282;-48
2023/09/07 05:12:52;;;;;;;;;10.00;10.00;;;;;22.61;54.52;101313.72;5069926;27;46691;-49
2023/09/07 05:15:17;;;;;;;;;10.00;9.00;;;;;22.58;54.45;101316.72;5060824;28;70936;-52
2023/09/07 05:17:42;;;;;;;;;10.33;9.33;;;;;22.60;54.54;101316.56;5066524;27;45354;-49
2023/09/07 05:20:09;;;;;;;;;10.67;10.67;;;;;22.58;54.32;101314.00;5069481;27;45468;-50
2023/09/07 05:22:37;;;;;;;;;12.00;12.00;;;;;22.57;54.78;101309.59;5058078;28;45485;-50
2023/09/07 05:25:03;;;;;;;;;14.67;11.33;;;;;22.57;55.03;101311.44;5059012;28;45434;-47
2023/09/07 05:27:28;;;;;;;;;12.00;11.00;;;;;22.57;55.69;101320.41;5058889;28;45413;-47
2023/09/07 05:29:53;;;;;;;;;11.00;11.00;;;;;22.56;55.23;101315.16;5069057;28;45456;-50
2023/09/07 05:32:19;;;;;;;;;10.00;10.00;;;;;22.56;55.16;101315.16;5088607;27;45978;-51
2023/09/07 05:34:44;;;;;;;;;13.00;12.00;;;;;22.55;55.95;101314.28;5087766;27;72386;-48
2023/09/07 05:37:09;;;;;;;;;12.00;11.67;;;;;22.60;55.71;101319.28;5084975;27;67388;-46
2023/09/07 05:39:35;;;;;;;;;15.33;13.00;;;;;22.60;56.24;101322.84;5093364;27;69817;-50
2023/09/07 05:42:00;;;;;;;;;14.33;12.00;;;;;22.60;56.25;101314.72;5071865;27;75583;-47
2023/09/07 05:44:25;;;;;;;;;11.33;10.33;;;;;22.63;55.83;101318.97;5083752;27;45615;-46
2023/09/07 05:46:51;;;;;;;;;15.33;12.00;;;;;22.65;56.29;101313.44;5075082;27;63378;-48
2023/09/07 05:49:16;;;;;;;;;11.00;10.00;;;;;22.63;56.40;101316.28;5082685;27;56085;-48
2023/09/07 05:51:41;;;;;;;;;12.67;12.00;;;;;22.62;56.38;101322.72;5096746;27;74650;-47
2023/09/07 05:54:07;;;;;;;;;12.00;10.67;;;;;22.59;56.62;101325.69;5088597;27;72373;-49
2023/09/07 05:56:33;;;;;;;;;16.33;12.33;;;;;22.58;56.66;101323.97;5099277;27;45389;-48
2023/09/07 05:58:58;;;;;;;;;12.67;12.67;;;;;22.59;56.25;101326.56;5101090;27;45797;-48
2023/09/07 06:01:24;;;;;;;;;10.33;10.00;;;;;22.65;56.40;101321.56;5084514;27;46342;-47
2023/09/07 06:03:49;;;;;;;;;14.00;12.33;;;;;22.69;55.89;101326.56;5090347;27;45381;-47
2023/09/07 06:06:14;;;;;;;;;13.33;13.33;;;;;22.74;56.33;101326.97;5096568;27;55923;-48
2023/09/07 06:08:40;;;;;;;;;13.00;10.33;;;;;22.79;56.27;101332.81;5081198;27;52028;-49
2023/09/07 06:11:06;;;;;;;;;14.00;13.67;;;;;22.85;56.10;101327.81;5083483;27;66647;-48
2023/09/07 06:13:31;;;;;;;;;14.00;14.00;;;;;22.90;55.82;101329.09;5081383;27;45484;-50
2023/09/07 06:15:56;;;;;;;;;17.00;14.33;;;;;22.93;55.89;101331.53;5065964;27;68050;-48
2023/09/07 06:18:22;;;;;;;;;12.33;11.67;;;;;22.97;56.36;101332.06;5090084;27;45432;-48
2023/09/07 06:20:47;;;;;;;;;19.00;16.67;;;;;23.12;56.22;101337.91;5089872;27;72231;-48
2023/09/07 06:23:12;;;;;;;;;17.67;16.00;;;;;24.74;54.53;101334.84;5088009;27;45366;-49
2023/09/07 06:25:38;;;;;;;;;16.67;14.00;;;;;27.38;52.66;101333.00;5107426;27;66253;-48
2023/09/07 06:28:03;;;;;;;;;14.00;11.00;;;;;29.82;46.96;101330.66;5089606;27;45501;-47
2023/09/07 06:30:29;;;;;;;;;16.67;13.67;;;;;31.83;43.19;101327.78;5093992;27;45496;-47
2023/09/07 06:32:56;;;;;;;;;19.67;11.00;;;;;33.50;39.49;101326.25;5100405;27;45425;-52
2023/09/07 06:35:21;;;;;;;;;12.33;12.00;;;;;34.95;37.32;101322.03;5088974;27;45434;-49
2023/09/07 06:37:46;;;;;;;;;11.33;10.67;;;;;33.88;33.60;101330.16;5092831;27;45463;-55
2023/09/07 06:40:13;;;;;;;;;11.67;10.33;;;;;32.60;33.96;101329.47;5080140;27;70969;-57
2023/09/07 06:42:38;;;;;;;;;11.00;11.00;;;;;31.66;36.80;101329.19;5092148;27;45526;-54
2023/09/07 06:45:05;;;;;;;;;9.33;8.00;;;;;31.04;36.12;101333.63;5095412;27;68306;-54
2023/09/07 06:47:30;;;;;;;;;10.25;8.75;;;;;30.47;36.94;101325.34;5089953;27;45533;-54
2023/09/07 06:49:56;;;;;;;;;13.33;8.67;;;;;30.17;38.39;101328.16;5083802;27;46513;-53
2023/09/07 06:52:22;;;;;;;;;10.00;9.33;;;;;29.99;39.14;101337.63;5092167;27;45877;-53
2023/09/07 06:54:47;;;;;;;;;10.75;9.50;;;;;29.84;38.39;101334.91;5078468;27;45397;-54
2023/09/07 06:57:12;;;;;;;;;9.50;9.50;;;;;29.64;38.24;101336.53;5069897;28;45582;-54
2023/09/07 06:59:38;;;;;;;;;8.75;8.75;;;;;29.38;38.54;101333.22;5078141;27;68600;-53
2023/09/07 07:02:04;;;;;;;;;9.00;8.00;;;;;29.16;39.31;101334.13;5079635;27;72401;-54
2023/09/07 07:04:30;;;;;;;;;14.33;11.33;;;;;28.96;39.65;101342.03;5082908;27;45623;-54
2023/09/07 07:06:55;;;;;;;;;10.75;9.75;;;;;28.80;40.28;101349.34;5081012;27;45525;-53
2023/09/07 07:09:20;;;;;;;;;7.33;7.33;;;;;28.65;40.11;101345.69;5096736;27;72475;-53
2023/09/07 07:11:46;;;;;;;;;9.75;9.25;;;;;28.38;40.19;101350.66;5088371;27;45388;-54
2023/09/07 07:14:11;;;;;;;;;9.67;9.67;;;;;27.92;41.04;101347.81;5085367;27;45372;-54
2023/09/07 07:16:38;;;;;;;;;9.00;9.00;;;;;27.40;42.08;101345.47;5087863;27;45240;-53
2023/09/07 07:19:03;;;;;;;;;9.75;9.25;;;;;27.03;42.89;101340.53;5081776;27;52658;-54
2023/09/07 07:21:29;;;;;;;;;7.00;5.67;;;;;26.77;43.17;101338.00;5084750;27;45786;-55
2023/09/07 07:23:54;;;;;;;;;10.75;9.25;;;;;26.61;43.61;101336.94;5091999;27;45354;-54
2023/09/07 07:26:20;;;;;;;;;15.00;11.67;;;;;26.48;43.50;101337.44;5097980;27;45367;-54
2023/09/07 07:28:45;;;;;;;;;11.33;10.67;;;;;26.33;43.83;101329.06;5081839;27;47266;-53
2023/09/07 07:31:10;;;;;;;;;9.67;9.33;;;;;26.13;44.21;101333.13;5086011;27;62937;-53
2023/09/07 07:33:37;;;;;;;;;10.50;10.50;;;;;25.92;44.14;101329.78;5088734;27;45441;-54
2023/09/07 07:36:03;;;;;;;;;5.67;5.33;;;;;25.76;44.70;101338.75;5062473;28;45384;-53
2023/09/07 07:38:28;;;;;;;;;10.50;10.50;;;;;25.62;45.49;101335.78;5090787;27;46134;-50
2023/09/07 07:40:54;;;;;;;;;10.67;8.67;;;;;25.48;45.46;101335.38;5081937;27;45449;-53
2023/09/07 07:43:19;;;;;;;;;10.00;10.00;;;;;25.33;46.30;101342.41;5062113;28;65117;-54
2023/09/07 07:45:44;;;;;;;;;9.00;9.00;;;;;25.22;46.35;101341.66;5079744;27;45376;-54
2023/09/07 07:48:10;;;;;;;;;8.33;8.33;;;;;25.13;46.07;101342.59;5086637;27;73490;-53
2023/09/07 07:50:42;;;;;;;;;10.33;9.00;;;;;25.08;46.63;101336.78;5081033;27;45415;-52
2023/09/07 07:53:07;;;;;;;;;10.33;9.33;;;;;25.06;46.60;101350.56;5054743;28;45629;-54
2023/09/07 07:55:40;;;;;;;;;10.00;10.00;;;;;25.01;46.77;101343.91;5084486;27;45323;-49
2023/09/07 07:58:09;;;;;;;;;9.33;9.33;;;;;24.94;46.60;101346.41;5098359;27;46189;-52
2023/09/07 08:00:38;;;;;;;;;9.67;9.67;;;;;24.87;47.36;101346.16;5085783;27;45745;-52
2023/09/07 08:03:08;;;;;;;;;15.00;10.00;;;;;24.83;46.80;101346.63;5066811;28;45455;-50
2023/09/07 08:05:34;;;;;;;;;12.00;11.67;;;;;24.82;47.43;101342.22;5079670;27;45367;-53
2023/09/07 08:08:00;;;;;;;;;10.00;10.00;;;;;24.81;46.87;101345.94;5098096;27;46178;-55
2023/09/07 08:10:25;;;;;;;;;12.67;11.33;;;;;24.81;47.10;101343.22;5097940;27;45306;-54
2023/09/07 08:12:54;;;;;;;;;11.67;10.67;;;;;24.80;47.45;101346.94;5066482;27;45648;-53
2023/09/07 08:15:22;;;;;;;;;10.67;10.00;;;;;24.77;47.26;101346.25;5079730;27;45398;-52
2023/09/07 08:17:47;;;;;;;;;11.00;11.00;;;;;24.76;47.61;101349.13;5096065;27;46629;-54
2023/09/07 08:20:13;;;;;;;;;9.00;9.00;;;;;24.76;47.76;101351.84;5080048;27;45448;-53
2023/09/07 08:22:40;;;;;;;;;9.33;9.33;;;;;24.76;47.62;101347.25;5094773;27;45408;-53
2023/09/07 08:25:07;;;;;;;;;10.33;10.33;;;;;24.80;47.89;101352.38;5087827;27;45595;-52
2023/09/07 08:27:32;;;;;;;;;10.33;10.00;;;;;24.82;47.86;101344.94;5099224;27;46909;-53
2023/09/07 08:29:59;;;;;;;;;11.00;11.00;;;;;24.83;47.31;101342.03;5099804;27;45389;-53
2023/09/07 08:32:24;;;;;;;;;11.67;9.33;;;;;24.81;47.16;101338.66;5099364;27;45466;-49
2023/09/07 08:34:50;;;;;;;;;13.00;10.67;;;;;24.84;47.51;101337.47;5077735;28;45327;-52
2023/09/07 08:37:16;;;;;;;;;10.00;9.00;;;;;24.85;47.35;101329.16;5078969;27;46228;-52
2023/09/07 08:39:41;;;;;;;;;11.00;10.00;;;;;24.88;47.47;101333.44;5069175;27;45315;-53
2023/09/07 08:42:06;;;;;;;;;12.00;11.00;;;;;24.92;48.16;101335.66;5096707;27;68189;-54
2023/09/07 08:44:33;;;;;;;;;12.33;8.33;;;;;24.92;48.38;101329.38;5078180;28;62283;-53
2023/09/07 08:46:59;;;;;;;;;10.33;10.33;;;;;24.96;47.81;101338.06;5093535;27;47007;-51
2023/09/07 08:49:25;;;;;;;;;11.67;10.00;;;;;25.00;48.09;101334.03;5082805;27;45516;-54
2023/09/07 08:51:51;;;;;;;;;7.67;7.67;;;;;25.02;47.13;101332.84;5087844;27;66242;-54
2023/09/07 08:54:17;;;;;;;;;13.33;10.67;;;;;25.07;48.14;101329.63;5072436;28;45494;-52
2023/09/07 08:56:44;;;;;;;;;11.67;11.00;;;;;25.12;48.15;101319.13;5078426;27;46713;-52
2023/09/07 08:59:10;;;;;;;;;13.33;12.00;;;;;25.23;47.75;101313.41;5069156;27;45391;-54
2023/09/07 09:01:37;;;;;;;;;8.67;8.67;;;;;25.41;47.30;101323.44;5082182;27;66552;-54
2023/09/07 09:04:02;;;;;;;;;14.00;11.00;;;;;25.64;47.02;101318.25;5087427;27;45442;-53
2023/09/07 09:06:28;;;;;;;;;11.67;10.67;;;;;25.88;47.27;101314.78;5070528;27;46007;-52
2023/09/07 09:08:56;;;;;;;;;10.00;10.00;;;;;26.14;46.42;101319.31;5078773;28;45453;-52
2023/09/07 09:11:22;;;;;;;;;11.67;9.67;;;;;26.41;46.33;101325.50;5080676;27;45422;-53
2023/09/07 09:13:49;;;;;;;;;8.33;8.33;;;;;26.66;45.93;101314.59;5070806;28;45419;-53
2023/09/07 09:16:15;;;;;;;;;13.67;12.00;;;;;26.84;45.52;101312.59;5086714;27;45371;-53
2023/09/07 09:18:52;;;;;;;;;13.67;11.00;;;;;27.01;45.34;101318.00;5081457;27;45280;-51
2023/09/07 09:21:18;;;;;;;;;10.00;9.67;;;;;27.20;44.95;101312.19;5082038;27;45492;-54
2023/09/07 09:23:43;;;;;;;;;13.33;12.00;;;;;27.37;44.77;101315.72;5088736;27;45479;-52
2023/09/07 09:26:08;;;;;;;;;12.33;11.00;;;;;27.57;44.57;101309.88;5063322;27;48890;-51
2023/09/07 09:28:34;;;;;;;;;11.00;10.00;;;;;27.79;44.22;101313.72;5088560;27;45408;-54
2023/09/07 09:31:01;;;;;;;;;8.67;8.67;;;;;28.03;43.92;101306.44;5088345;27;45405;-52
2023/09/07 09:33:28;;;;;;;;;9.00;9.00;;;;;28.25;43.05;101314.84;5077968;27;45443;-52
2023/09/07 09:35:54;;;;;;;;;13.00;11.33;;;;;28.40;42.76;101318.50;5078174;27;46177;-51
2023/09/07 09:38:19;;;;;;;;;11.00;10.00;;;;;28.54;42.71;101317.72;5070196;27;45401;-52
2023/09/07 09:40:45;;;;;;;;;11.33;11.00;;;;;28.64;41.99;101319.34;5097795;27;45338;-52
2023/09/07 09:43:11;;;;;;;;;12.00;10.33;;;;;28.73;41.88;101318.28;5080649;27;45440;-53
2023/09/07 09:45:37;;;;;;;;;11.67;10.33;;;;;28.85;41.74;101308.59;5062366;28;45494;-52
2023/09/07 09:48:03;;;;;;;;;9.67;8.67;;;;;28.98;40.85;101315.31;5078290;28;45308;-51
2023/09/07 09:50:28;;;;;;;;;11.75;8.25;;;;;29.12;41.30;101310.91;5090347;27;45356;-51
2023/09/07 09:52:54;;;;;;;;;10.00;10.00;;;;;29.28;41.46;101315.38;5044351;28;45318;-51
2023/09/07 09:55:19;;;;;;;;;13.33;12.00;;;;;29.43;40.39;101313.50;5078194;27;47173;-51
2023/09/07 09:57:45;;;;;;;;;11.00;9.67;;;;;29.59;41.18;101317.06;5087395;27;45300;-50
2023/09/07 10:00:28;;;;;;;;;10.67;9.67;;;;;29.76;40.00;101310.31;5075681;28;64775;-51
2023/09/07 10:03:12;;;;;;;;;9.00;9.00;;;;;29.92;40.10;101308.44;5090411;27;45418;-51
2023/09/07 10:05:37;;;;;;;;;14.00;11.00;;;;;30.06;39.01;101309.47;5062378;27;45635;-53
2023/09/07 10:08:09;;;;;;;;;8.33;8.00;;;;;30.16;39.14;101316.31;5082151;27;45664;-52
2023/09/07 10:10:36;;;;;;;;;8.67;8.67;;;;;30.29;39.13;101304.63;5086583;27;45429;-50
2023/09/07 10:13:02;;;;;;;;;12.33;10.33;;;;;30.42;39.00;101312.16;5083169;27;45453;-54
2023/09/07 10:15:28;;;;;;;;;12.50;9.50;;;;;30.55;38.90;101308.72;5091252;27;46395;-52
2023/09/07 10:18:03;;;;;;;;;9.00;9.00;;;;;30.72;38.33;101313.94;5089470;27;46276;-51
2023/09/07 10:20:29;;;;;;;;;13.25;11.00;;;;;30.85;37.99;101309.41;5081079;27;45482;-50
2023/09/07 10:23:04;;;;;;;;;13.33;12.00;;;;;30.85;37.05;101309.41;5097049;27;69835;-53
2023/09/07 10:25:30;;;;;;;;;11.67;9.33;;;;;30.87;38.18;101302.84;5101188;27;46072;-51
2023/09/07 10:27:55;;;;;;;;;10.00;10.00;;;;;30.87;38.11;101306.44;5087900;27;45397;-52
2023/09/07 10:30:23;;;;;;;;;10.00;9.00;;;;;30.96;38.46;101307.16;5082700;27;45259;-52
2023/09/07 10:32:49;;;;;;;;;10.00;10.00;;;;;31.12;37.41;101309.63;5078498;28;45398;-49
2023/09/07 10:35:21;;;;;;;;;10.25;10.25;;;;;31.24;37.91;101306.31;5081424;27;46245;-50
2023/09/07 10:37:47;;;;;;;;;11.00;10.33;;;;;31.32;37.23;101301.50;5084083;27;45563;-53
2023/09/07 10:40:18;;;;;;;;;12.00;10.00;;;;;31.47;37.03;101300.53;5093651;27;45354;-50
2023/09/07 10:42:44;;;;;;;;;10.67;10.33;;;;;31.61;37.46;101293.19;5080809;28;45406;-53
2023/09/07 10:45:12;;;;;;;;;11.00;9.33;;;;;31.74;37.16;101290.53;5093549;27;46271;-53
2023/09/07 10:47:40;;;;;;;;;10.67;9.67;;;;;31.87;36.48;101294.38;5099097;27;45422;-52
2023/09/07 10:50:06;;;;;;;;;11.67;10.67;;;;;31.98;36.40;101289.13;5086834;27;45299;-53
2023/09/07 10:52:33;;;;;;;;;8.50;8.50;;;;;32.11;36.43;101285.56;5080480;27;45959;-49
2023/09/07 10:54:58;;;;;;;;;11.00;9.00;;;;;32.26;35.69;101285.41;5080715;27;45645;-53
2023/09/07 10:57:24;;;;;;;;;9.50;9.50;;;;;32.37;35.86;101277.59;5079451;27;73278;-52
2023/09/07 10:59:49;;;;;;;;;12.00;11.25;;;;;32.46;35.68;101273.56;5091641;27;65458;-52
2023/09/07 11:02:15;;;;;;;;;10.33;10.33;;;;;32.52;35.67;101274.66;5081156;27;45439;-51
2023/09/07 11:04:41;;;;;;;;;10.00;10.00;;;;;32.61;35.68;101271.47;5080195;28;46212;-51
2023/09/07 11:07:06;;;;;;;;;12.33;11.67;;;;;32.84;35.83;101272.09;5085419;27;60297;-51
2023/09/07 11:09:32;;;;;;;;;9.75;9.75;;;;;32.95;34.43;101275.06;5077500;27;45677;-52
2023/09/07 11:12:03;;;;;;;;;10.75;9.75;;;;;33.06;33.95;101278.22;5086667;27;45359;-52